Time;durP1;ratioP1;P1;durP2;ratioP2;P2;SDS_P1;SDS_P2;PMS_P1;PMS_P2;Temp;Humidity;BMP_temperature;BMP_pressure;BME280_temperature;BME280_humidity;BME280_pressure;Samples;Min_cycle;Max_cycle;Signal;HPM_P1;HPM_P2
2022/08/23 00:02:12;;;;;;;0.82;0.20;;;24.70;77.20;;;;;;4914718;29;20024;-74
2022/08/23 00:04:42;;;;;;;1.35;0.70;;;24.90;76.30;;;;;;4916821;29;20500;-75
2022/08/23 00:07:13;;;;;;;0.82;0.40;;;24.80;77.10;;;;;;4914951;29;20036;-74
2022/08/23 00:09:40;;;;;;;1.80;1.25;;;24.80;77.00;;;;;;4916739;29;20107;-74
2022/08/23 00:12:18;;;;;;;1.90;0.20;;;24.90;78.00;;;;;;4913508;29;20032;-75
2022/08/23 00:14:50;;;;;;;1.55;0.28;;;24.70;77.70;;;;;;4916228;29;20023;-75
2022/08/23 00:17:17;;;;;;;0.55;0.20;;;24.70;78.30;;;;;;4915173;29;20051;-74
2022/08/23 00:19:46;;;;;;;1.00;0.30;;;25.10;77.40;;;;;;4916534;29;20102;-76
2022/08/23 00:22:15;;;;;;;2.15;0.60;;;25.40;76.10;;;;;;4914677;29;20111;-75
2022/08/23 00:24:42;;;;;;;0.93;0.63;;;25.40;76.70;;;;;;4916216;29;20039;-74
2022/08/23 00:27:13;;;;;;;1.38;0.40;;;25.70;77.40;;;;;;4915441;29;20224;-74
2022/08/23 00:29:44;;;;;;;0.30;0.20;;;25.90;76.50;;;;;;4916464;29;20029;-72
2022/08/23 00:32:15;;;;;;;1.02;0.20;;;26.00;75.50;;;;;;4898062;29;20036;-73
2022/08/23 00:34:43;;;;;;;1.17;0.20;;;25.70;75.40;;;;;;4896850;29;20024;-75
2022/08/23 00:37:11;;;;;;;1.55;0.30;;;25.80;76.40;;;;;;4908764;29;20116;-74
2022/08/23 00:39:39;;;;;;;3.05;1.15;;;25.70;76.50;;;;;;4897393;29;20077;-74
2022/08/23 00:48:17;;;;;;;2.95;0.82;;;26.10;76.60;;;;;;4916194;29;20069;-73
2022/08/23 00:51:04;;;;;;;0.80;0.40;;;26.10;75.40;;;;;;4914369;29;20402;-74
2022/08/23 00:53:39;;;;;;;4.38;0.38;;;26.40;74.80;;;;;;4916026;29;20036;-73
2022/08/23 00:56:11;;;;;;;2.07;0.50;;;26.60;74.60;;;;;;4914059;29;20038;-73
2022/08/23 00:58:38;;;;;;;0.73;0.30;;;26.20;76.00;;;;;;4916178;29;20730;-72
2022/08/23 01:01:07;;;;;;;1.17;0.35;;;26.10;75.70;;;;;;4914416;29;20040;-74
2022/08/23 01:03:38;;;;;;;1.85;0.32;;;26.00;75.40;;;;;;4915926;29;20035;-74
2022/08/23 01:06:21;;;;;;;1.23;0.20;;;25.90;75.50;;;;;;4913391;29;20036;-74
2022/08/23 01:08:54;;;;;;;1.40;0.30;;;25.80;75.70;;;;;;4914395;29;20052;-73
2022/08/23 01:11:32;;;;;;;2.63;0.28;;;25.40;77.00;;;;;;4914172;29;20027;-73
2022/08/23 01:14:14;;;;;;;1.40;0.28;;;25.20;75.90;;;;;;4915439;29;20495;-73
2022/08/23 01:16:48;;;;;;;0.43;0.20;;;24.70;77.00;;;;;;4911018;29;20084;-74
2022/08/23 01:19:29;;;;;;;0.68;0.30;;;24.10;77.40;;;;;;4915638;29;20029;-74
2022/08/23 01:22:05;;;;;;;0.70;0.20;;;24.70;77.70;;;;;;4914266;29;20096;-74
2022/08/23 01:24:34;;;;;;;1.02;0.22;;;24.90;77.40;;;;;;4915162;29;20039;-73
2022/08/23 01:27:01;;;;;;;1.13;0.50;;;24.40;78.20;;;;;;4912462;29;20432;-73
2022/08/23 01:29:28;;;;;;;1.17;0.50;;;24.00;78.90;;;;;;4915285;29;20103;-74
2022/08/23 01:31:56;;;;;;;1.40;0.30;;;23.70;78.70;;;;;;4911682;29;20128;-74
2022/08/23 01:34:28;;;;;;;1.65;0.32;;;23.40;78.80;;;;;;4915784;29;20032;-74
2022/08/23 01:36:57;;;;;;;0.95;0.40;;;23.90;78.80;;;;;;4913668;29;20050;-74
2022/08/23 01:39:25;;;;;;;1.17;0.30;;;23.70;79.00;;;;;;4915005;29;20039;-74
2022/08/23 01:41:52;;;;;;;1.35;0.30;;;23.40;79.10;;;;;;4913920;29;20139;-73
2022/08/23 01:44:20;;;;;;;0.82;0.30;;;24.00;79.30;;;;;;4915024;29;20600;-73
2022/08/23 01:46:48;;;;;;;0.32;0.20;;;24.20;78.30;;;;;;4896972;29;20047;-74
2022/08/23 01:49:15;;;;;;;5.28;0.88;;;24.70;78.30;;;;;;4915294;29;20032;-74
2022/08/23 01:51:44;;;;;;;1.27;0.40;;;24.70;78.40;;;;;;4913908;29;20361;-73
2022/08/23 01:54:12;;;;;;;2.15;0.43;;;24.30;77.90;;;;;;4915149;29;20028;-74
2022/08/23 01:56:43;;;;;;;1.15;0.20;;;25.00;78.40;;;;;;4913663;29;20036;-74
2022/08/23 01:59:12;;;;;;;0.65;0.28;;;25.20;77.30;;;;;;4915330;29;20032;-74
2022/08/23 02:01:39;;;;;;;0.75;0.25;;;25.10;77.80;;;;;;4913648;29;20080;-74
2022/08/23 02:04:07;;;;;;;2.20;0.30;;;24.90;77.40;;;;;;4915203;29;20028;-74
2022/08/23 02:06:34;;;;;;;0.82;0.32;;;25.30;78.40;;;;;;4902934;29;20194;-74
2022/08/23 02:09:03;;;;;;;1.73;0.45;;;24.80;76.90;;;;;;4915534;29;20056;-73
2022/08/23 02:11:36;;;;;;;3.15;0.38;;;24.30;78.10;;;;;;4913536;29;20036;-74
2022/08/23 02:14:07;;;;;;;1.10;0.30;;;23.70;79.30;;;;;;4914946;29;20043;-73
2022/08/23 02:16:40;;;;;;;2.10;0.38;;;23.30;78.40;;;;;;4910534;29;20040;-73
2022/08/23 02:19:10;;;;;;;0.50;0.22;;;22.80;80.40;;;;;;4914690;29;20051;-73
2022/08/23 02:21:39;;;;;;;0.55;0.28;;;22.40;81.30;;;;;;4913160;29;20383;-73
2022/08/23 02:24:12;;;;;;;0.50;0.15;;;22.20;85.00;;;;;;4914302;29;20155;-73
2022/08/23 02:26:43;;;;;;;0.73;0.30;;;22.40;85.60;;;;;;4915625;29;20490;-74
2022/08/23 02:29:10;;;;;;;0.68;0.40;;;22.60;88.70;;;;;;4914650;29;20031;-73
2022/08/23 02:31:38;;;;;;;1.92;0.60;;;22.50;90.70;;;;;;4912698;29;20036;-74
2022/08/23 02:34:05;;;;;;;0.40;0.20;;;22.40;91.60;;;;;;4914549;29;20111;-74
2022/08/23 02:36:33;;;;;;;1.52;0.40;;;22.20;88.70;;;;;;4913187;29;20073;-74
2022/08/23 02:39:01;;;;;;;0.82;0.43;;;22.20;90.60;;;;;;4914978;29;20039;-73
2022/08/23 02:41:28;;;;;;;0.65;0.30;;;22.20;91.10;;;;;;4913657;29;20036;-73
2022/08/23 02:43:56;;;;;;;2.20;0.32;;;22.90;90.50;;;;;;4914581;29;20032;-73
2022/08/23 02:46:24;;;;;;;0.73;0.30;;;24.50;88.90;;;;;;4912938;29;20131;-73
2022/08/23 02:48:52;;;;;;;0.75;0.22;;;25.40;84.60;;;;;;4914264;29;20032;-74
2022/08/23 02:51:20;;;;;;;0.65;0.28;;;25.30;80.30;;;;;;4912152;29;20160;-73
2022/08/23 02:53:47;;;;;;;1.13;0.60;;;24.90;82.30;;;;;;4914610;29;20032;-74
2022/08/23 02:56:15;;;;;;;1.98;0.65;;;24.70;82.90;;;;;;4913322;29;20036;-74
2022/08/23 02:58:46;;;;;;;2.33;0.60;;;24.30;86.00;;;;;;4919115;29;20476;-72
2022/08/23 03:01:24;;;;;;;0.85;0.45;;;24.00;82.80;;;;;;4906146;29;20119;-73
2022/08/23 03:03:52;;;;;;;2.13;0.30;;;23.60;82.80;;;;;;4898645;29;20040;-73
2022/08/23 03:06:20;;;;;;;2.78;0.73;;;23.30;83.60;;;;;;4909616;29;20477;-73
2022/08/23 03:08:48;;;;;;;1.35;0.45;;;23.10;84.70;;;;;;4917529;29;20063;-73
2022/08/23 03:11:20;;;;;;;4.18;0.75;;;22.80;85.10;;;;;;4916404;29;20028;-74
2022/08/23 03:13:49;;;;;;;0.75;0.50;;;22.70;85.60;;;;;;4917964;29;20483;-73
2022/08/23 03:16:18;;;;;;;2.10;0.60;;;22.40;88.30;;;;;;4916606;29;20219;-74
2022/08/23 03:18:46;;;;;;;1.52;0.40;;;22.20;88.20;;;;;;4918383;29;20024;-73
2022/08/23 03:21:14;;;;;;;1.23;0.60;;;22.00;88.10;;;;;;4915715;29;20052;-73
2022/08/23 03:23:41;;;;;;;1.23;0.63;;;21.70;88.00;;;;;;4917672;29;20036;-73
2022/08/23 03:26:11;;;;;;;3.15;1.10;;;21.50;88.10;;;;;;4911692;29;20528;-73
2022/08/23 03:28:40;;;;;;;3.25;0.40;;;21.30;90.30;;;;;;4915557;29;20412;-73
2022/08/23 03:31:09;;;;;;;1.83;0.50;;;21.20;90.90;;;;;;4914213;29;20427;-73
2022/08/23 03:33:37;;;;;;;3.92;0.60;;;21.00;91.70;;;;;;4918091;29;20115;-74
2022/08/23 03:36:07;;;;;;;5.22;1.85;;;20.80;92.90;;;;;;4915343;29;20051;-73
2022/08/23 03:38:36;;;;;;;6.18;1.10;;;20.40;94.80;;;;;;4917366;29;20028;-74
2022/08/23 03:41:04;;;;;;;7.75;1.45;;;19.60;95.40;;;;;;4914293;29;20043;-74
2022/08/23 03:43:31;;;;;;;4.70;0.63;;;18.50;97.20;;;;;;4917558;29;20091;-73
2022/08/23 03:45:59;;;;;;;1.20;0.63;;;17.50;98.70;;;;;;4916038;29;20036;-77
2022/08/23 03:48:26;;;;;;;7.32;1.95;;;16.60;99.80;;;;;;4900528;29;20452;-76
2022/08/23 03:50:54;;;;;;;4.25;0.70;;;15.90;99.90;;;;;;4915863;29;20070;-76
2022/08/23 03:53:22;;;;;;;1.92;0.50;;;15.20;99.90;;;;;;4917445;29;20035;-74
2022/08/23 03:55:52;;;;;;;3.13;0.60;;;14.80;99.90;;;;;;4905010;29;20592;-75
2022/08/23 03:58:20;;;;;;;1.92;0.68;;;14.50;99.90;;;;;;4917050;29;20044;-76
2022/08/23 04:00:48;;;;;;;1.00;0.40;;;14.30;99.90;;;;;;4890331;29;20032;-76
2022/08/23 04:03:15;;;;;;;2.10;0.47;;;14.20;99.90;;;;;;4898287;29;20092;-77
2022/08/23 04:05:43;;;;;;;1.02;0.40;;;14.20;99.90;;;;;;4903697;29;20039;-76
2022/08/23 04:08:12;;;;;;;0.75;0.65;;;14.10;99.90;;;;;;4916231;29;20032;-75
2022/08/23 04:10:40;;;;;;;2.72;0.30;;;14.00;99.90;;;;;;4915503;29;20032;-74
2022/08/23 04:13:09;;;;;;;3.15;0.47;;;13.90;99.90;;;;;;4917117;29;20059;-75
2022/08/23 04:15:37;;;;;;;2.60;0.70;;;14.00;99.90;;;;;;4915127;29;20032;-75
2022/08/23 04:18:05;;;;;;;1.88;0.40;;;13.90;99.90;;;;;;4916523;29;20432;-76
2022/08/23 04:20:33;;;;;;;3.17;0.55;;;13.90;99.90;;;;;;4915069;29;20511;-75
2022/08/23 04:23:01;;;;;;;0.95;0.20;;;13.90;99.90;;;;;;4916706;29;20110;-73
2022/08/23 04:25:30;;;;;;;1.35;0.30;;;13.90;99.90;;;;;;4915807;29;20032;-73
2022/08/23 04:27:57;;;;;;;0.90;0.20;;;13.80;99.90;;;;;;4916303;29;20051;-73
2022/08/23 04:30:25;;;;;;;0.40;0.25;;;13.80;99.90;;;;;;4915089;29;20032;-74
2022/08/23 04:32:52;;;;;;;0.52;0.13;;;13.70;99.90;;;;;;4916740;29;20553;-74
2022/08/23 04:35:20;;;;;;;0.30;0.30;;;13.60;99.90;;;;;;4914910;29;20028;-74
2022/08/23 04:37:47;;;;;;;0.70;0.20;;;13.40;99.90;;;;;;4916741;29;20087;-75
2022/08/23 04:43:00;;;;;;;0.17;0.10;;;13.20;99.90;;;;;;4898119;29;20102;-74
2022/08/23 04:45:28;;;;;;;0.47;0.08;;;13.20;99.90;;;;;;4901139;29;20103;-76
2022/08/23 04:47:55;;;;;;;0.28;0.20;;;13.10;99.90;;;;;;4916252;29;20420;-76
2022/08/23 04:50:23;;;;;;;1.65;0.10;;;12.90;99.90;;;;;;4898246;29;20035;-75
2022/08/23 04:52:50;;;;;;;0.35;0.28;;;12.70;99.90;;;;;;4916228;29;20028;-74
2022/08/23 04:55:17;;;;;;;0.75;0.20;;;12.50;99.90;;;;;;4911535;29;20108;-73
2022/08/23 04:57:45;;;;;;;0.10;0.10;;;12.50;99.90;;;;;;4914721;29;20055;-73
2022/08/23 05:00:14;;;;;;;0.65;0.10;;;12.30;99.90;;;;;;4913814;29;20056;-74
2022/08/23 05:02:41;;;;;;;1.30;0.47;;;12.30;99.90;;;;;;4915951;29;20026;-73
2022/08/23 05:05:10;;;;;;;0.10;0.10;;;12.20;99.90;;;;;;4913807;29;20071;-72
2022/08/23 05:07:38;;;;;;;0.20;0.10;;;12.00;99.90;;;;;;4915645;29;20035;-72
2022/08/23 05:10:08;;;;;;;0.08;0.08;;;11.80;99.90;;;;;;4913117;29;20045;-72
2022/08/23 05:12:35;;;;;;;0.10;0.00;;;11.70;99.90;;;;;;4915797;29;20035;-72
2022/08/23 05:15:03;;;;;;;0.55;0.10;;;11.60;99.90;;;;;;4913927;29;20419;-73
2022/08/23 05:17:31;;;;;;;0.43;0.40;;;11.60;99.90;;;;;;4912639;29;20027;-73
2022/08/23 05:19:58;;;;;;;0.60;0.30;;;11.50;99.90;;;;;;4913800;29;20033;-75
2022/08/23 05:22:26;;;;;;;0.75;0.40;;;11.50;99.90;;;;;;4898998;29;20035;-73
2022/08/23 05:24:53;;;;;;;0.20;0.15;;;11.50;99.90;;;;;;4909602;29;20070;-73
2022/08/23 05:27:20;;;;;;;0.00;0.00;;;11.30;99.90;;;;;;4915748;29;20087;-73
2022/08/23 05:29:48;;;;;;;0.85;0.55;;;11.00;99.90;;;;;;4913441;29;20051;-73
2022/08/23 05:32:16;;;;;;;0.00;0.00;;;10.90;99.90;;;;;;4915185;29;20040;-72
2022/08/23 05:34:43;;;;;;;0.45;0.32;;;10.70;99.90;;;;;;4915517;29;20099;-71
2022/08/23 05:37:10;;;;;;;0.10;0.10;;;10.50;99.90;;;;;;4914944;29;20036;-72
2022/08/23 05:39:38;;;;;;;1.02;0.10;;;10.30;99.90;;;;;;4915549;29;20357;-73
2022/08/23 05:42:08;;;;;;;0.10;0.10;;;10.30;99.90;;;;;;4913779;29;20460;-73
2022/08/23 05:44:36;;;;;;;0.10;0.10;;;10.20;99.90;;;;;;4915595;29;20104;-72
2022/08/23 05:47:09;;;;;;;0.10;0.10;;;10.10;99.90;;;;;;4913784;29;20048;-73
2022/08/23 05:49:37;;;;;;;0.90;0.10;;;10.10;99.90;;;;;;4915847;29;20035;-73
2022/08/23 05:52:07;;;;;;;1.45;0.10;;;10.10;99.90;;;;;;4913225;29;20059;-73
2022/08/23 05:54:35;;;;;;;0.32;0.20;;;10.10;99.90;;;;;;4915527;29;20028;-73
2022/08/23 05:57:03;;;;;;;0.30;0.20;;;10.00;99.90;;;;;;4913879;29;20096;-75
2022/08/23 05:59:30;;;;;;;1.23;0.30;;;10.10;99.90;;;;;;4915325;29;20395;-72
2022/08/23 06:01:58;;;;;;;0.70;0.60;;;10.00;99.90;;;;;;4898730;29;20416;-72
2022/08/23 06:04:25;;;;;;;10.98;5.45;;;10.00;99.90;;;;;;4896375;29;20353;-73
2022/08/23 06:06:55;;;;;;;13.45;6.80;;;10.10;99.90;;;;;;4912009;29;20072;-73
2022/08/23 06:09:22;;;;;;;18.08;8.55;;;10.00;99.90;;;;;;4915323;29;20086;-72
2022/08/23 06:11:50;;;;;;;7.10;3.95;;;10.10;99.90;;;;;;4913644;29;20076;-73
2022/08/23 06:14:17;;;;;;;7.13;4.00;;;10.10;99.90;;;;;;4914864;29;20087;-73
2022/08/23 06:16:48;;;;;;;10.20;6.05;;;9.90;99.90;;;;;;4912666;29;20032;-73
2022/08/23 06:19:16;;;;;;;25.13;13.30;;;9.90;99.90;;;;;;4912823;29;20104;-72
2022/08/23 06:21:44;;;;;;;15.93;8.48;;;9.90;99.90;;;;;;4910574;29;20036;-71
2022/08/23 06:24:14;;;;;;;5.82;4.55;;;9.90;99.90;;;;;;4915004;29;20028;-71
2022/08/23 06:26:44;;;;;;;9.73;5.90;;;9.90;99.90;;;;;;4913039;29;20048;-73
2022/08/23 06:29:14;;;;;;;35.53;17.30;;;9.80;99.90;;;;;;4915191;29;20032;-73
2022/08/23 06:31:50;;;;;;;19.40;10.60;;;9.80;99.90;;;;;;4912197;29;20028;-72
2022/08/23 06:34:21;;;;;;;19.95;10.55;;;9.80;99.90;;;;;;4914769;29;20511;-73
2022/08/23 06:36:54;;;;;;;17.30;9.35;;;9.80;99.90;;;;;;4913209;29;20032;-73
2022/08/23 06:39:23;;;;;;;4.82;2.95;;;9.80;99.90;;;;;;4912367;29;20389;-73
2022/08/23 06:41:52;;;;;;;10.68;7.65;;;9.80;99.90;;;;;;4899460;29;20036;-75
2022/08/23 06:44:20;;;;;;;4.65;3.63;;;9.70;99.90;;;;;;4895746;29;20039;-74
2022/08/23 06:46:48;;;;;;;1.65;1.05;;;9.70;99.90;;;;;;4909632;29;20047;-72
2022/08/23 06:49:15;;;;;;;0.75;0.65;;;9.70;99.90;;;;;;4914654;29;20032;-74
2022/08/23 06:51:50;;;;;;;0.77;0.50;;;9.60;99.90;;;;;;4913055;29;20047;-74
2022/08/23 06:54:20;;;;;;;0.40;0.40;;;9.60;99.90;;;;;;4914644;29;20096;-74
2022/08/23 06:56:48;;;;;;;0.45;0.30;;;9.60;99.90;;;;;;4913875;29;20576;-72
2022/08/23 06:59:17;;;;;;;0.20;0.20;;;9.60;99.90;;;;;;4914967;29;20020;-73
2022/08/23 07:02:06;;;;;;;1.05;0.77;;;9.60;99.90;;;;;;4912559;29;20064;-73
2022/08/23 07:04:39;;;;;;;2.53;0.82;;;9.50;99.90;;;;;;4915005;29;20103;-74
2022/08/23 07:07:08;;;;;;;1.00;0.22;;;9.50;99.90;;;;;;4912957;29;20044;-74
2022/08/23 07:09:36;;;;;;;0.47;0.20;;;9.50;99.90;;;;;;4897567;29;20506;-72
2022/08/23 07:12:05;;;;;;;0.50;0.17;;;9.40;99.90;;;;;;4912626;29;20059;-73
2022/08/23 07:14:33;;;;;;;0.82;0.38;;;9.40;99.90;;;;;;4915181;29;20063;-74
2022/08/23 07:17:02;;;;;;;0.65;0.10;;;9.40;99.90;;;;;;4912406;29;20040;-72
2022/08/23 07:19:33;;;;;;;0.10;0.10;;;9.30;99.90;;;;;;4914618;29;20036;-72
2022/08/23 07:22:02;;;;;;;0.93;0.20;;;9.30;99.90;;;;;;4905618;29;20479;-72
2022/08/23 07:24:31;;;;;;;1.75;0.30;;;9.30;99.90;;;;;;4914622;29;20068;-73
2022/08/23 07:27:00;;;;;;;0.22;0.20;;;9.30;99.90;;;;;;4912636;29;20082;-73
2022/08/23 07:29:28;;;;;;;0.43;0.20;;;9.30;99.90;;;;;;4914272;29;20060;-73
2022/08/23 07:31:56;;;;;;;0.20;0.10;;;9.30;99.90;;;;;;4913282;29;20492;-73
2022/08/23 07:34:25;;;;;;;0.28;0.10;;;9.30;99.90;;;;;;4913074;29;20040;-72
2022/08/23 07:36:53;;;;;;;0.00;0.00;;;9.20;99.90;;;;;;4912336;29;20039;-72
2022/08/23 07:39:25;;;;;;;0.20;0.10;;;9.20;99.90;;;;;;4914149;29;20032;-72
2022/08/23 07:41:52;;;;;;;1.48;0.10;;;9.20;99.90;;;;;;4912490;29;20032;-73
2022/08/23 07:44:20;;;;;;;1.67;0.30;;;9.20;99.90;;;;;;4918126;29;20481;-72
2022/08/23 07:46:48;;;;;;;0.03;0.03;;;9.20;99.90;;;;;;4915698;29;20411;-73
2022/08/23 07:49:16;;;;;;;0.17;0.10;;;9.10;99.90;;;;;;4924943;29;20103;-72
2022/08/23 07:51:47;;;;;;;0.10;0.10;;;9.10;99.90;;;;;;4916223;29;20082;-73
2022/08/23 07:54:16;;;;;;;0.75;0.32;;;9.10;99.90;;;;;;4917202;29;20116;-71
2022/08/23 07:56:45;;;;;;;0.00;0.00;;;9.10;99.90;;;;;;4915477;29;20043;-73
2022/08/23 07:59:13;;;;;;;0.10;0.10;;;9.10;99.90;;;;;;4900814;29;20093;-71
2022/08/23 08:01:43;;;;;;;0.05;0.05;;;9.00;99.90;;;;;;4915921;29;20483;-73
2022/08/23 08:04:11;;;;;;;0.52;0.10;;;9.00;99.90;;;;;;4917699;29;20058;-72
2022/08/23 08:06:49;;;;;;;0.22;0.10;;;9.00;99.90;;;;;;4917117;29;20051;-75
2022/08/23 08:09:19;;;;;;;0.10;0.00;;;9.00;99.90;;;;;;4907968;29;20053;-74
2022/08/23 08:11:47;;;;;;;1.70;0.10;;;9.00;99.90;;;;;;4912246;29;20082;-72
2022/08/23 08:14:16;;;;;;;0.15;0.05;;;9.00;99.90;;;;;;4917124;29;20402;-73
2022/08/23 08:16:49;;;;;;;0.35;0.10;;;8.90;99.90;;;;;;4911734;29;20104;-71
2022/08/23 08:19:18;;;;;;;0.57;0.10;;;8.90;99.90;;;;;;4917289;29;20025;-75
2022/08/23 08:21:47;;;;;;;0.25;0.10;;;8.90;99.90;;;;;;4919207;29;20032;-72
2022/08/23 08:24:16;;;;;;;0.10;0.10;;;8.90;99.90;;;;;;4918834;29;20042;-72
2022/08/23 08:26:44;;;;;;;0.43;0.20;;;8.90;99.90;;;;;;4918367;29;20107;-73
2022/08/23 08:29:12;;;;;;;1.55;0.20;;;8.80;99.90;;;;;;4909305;29;20103;-73
2022/08/23 08:31:42;;;;;;;0.80;0.10;;;8.80;99.90;;;;;;4911908;29;20543;-73
2022/08/23 08:34:10;;;;;;;0.38;0.10;;;8.80;99.90;;;;;;4917045;29;20024;-73
2022/08/23 08:36:48;;;;;;;1.08;0.30;;;8.80;99.90;;;;;;4914704;29;20397;-71
2022/08/23 08:39:19;;;;;;;0.20;0.10;;;8.80;99.90;;;;;;4917519;29;20063;-73
2022/08/23 08:42:06;;;;;;;1.35;0.28;;;8.80;99.90;;;;;;4914671;29;20126;-72
2022/08/23 08:44:39;;;;;;;0.65;0.35;;;8.70;99.90;;;;;;4916649;29;20440;-72
2022/08/23 08:47:19;;;;;;;0.28;0.20;;;8.70;99.90;;;;;;4914752;29;20056;-72
2022/08/23 08:49:57;;;;;;;0.47;0.25;;;8.70;99.90;;;;;;4915147;29;20024;-73
2022/08/23 08:52:27;;;;;;;0.10;0.10;;;8.70;99.90;;;;;;4908432;29;20032;-73
2022/08/23 08:55:08;;;;;;;0.20;0.20;;;8.70;99.90;;;;;;4914272;29;20378;-73
2022/08/23 08:57:40;;;;;;;0.20;0.13;;;8.70;99.90;;;;;;4934591;29;20028;-71
2022/08/23 09:00:22;;;;;;;0.30;0.10;;;8.60;99.90;;;;;;4930061;29;20041;-72
2022/08/23 09:02:50;;;;;;;0.00;0.00;;;8.60;99.90;;;;;;4916462;29;20127;-72
2022/08/23 09:05:26;;;;;;;0.98;0.00;;;8.60;99.90;;;;;;4914450;29;20036;-73
2022/08/23 09:08:47;;;;;;;1.35;0.35;;;8.60;99.90;;;;;;4916036;29;20047;-72
2022/08/23 09:11:21;;;;;;;0.00;0.00;;;8.50;99.90;;;;;;4914442;29;20040;-72
2022/08/23 09:14:01;;;;;;;0.25;0.10;;;8.50;99.90;;;;;;4916841;29;20468;-72
2022/08/23 09:16:47;;;;;;;0.00;0.00;;;8.50;99.90;;;;;;4911486;29;20064;-72
2022/08/23 09:19:15;;;;;;;0.00;0.00;;;8.50;99.90;;;;;;4916181;29;20119;-73
2022/08/23 09:21:58;;;;;;;0.10;0.00;;;8.50;99.90;;;;;;4913887;29;20111;-73
2022/08/23 09:24:25;;;;;;;0.00;0.00;;;8.50;99.90;;;;;;4916307;29;20475;-73
2022/08/23 09:26:53;;;;;;;0.10;0.10;;;8.50;99.90;;;;;;4899966;29;20072;-72
2022/08/23 09:29:23;;;;;;;0.20;0.10;;;8.50;99.90;;;;;;4898944;29;20072;-73
2022/08/23 09:31:57;;;;;;;0.77;0.10;;;8.50;99.90;;;;;;4914115;29;20471;-73
2022/08/23 09:34:30;;;;;;;0.00;0.00;;;8.50;99.90;;;;;;4916035;29;20036;-74
2022/08/23 09:37:21;;;;;;;0.17;0.10;;;8.50;99.90;;;;;;4914123;29;20099;-74
2022/08/23 09:40:14;;;;;;;0.08;0.08;;;8.40;99.90;;;;;;4915341;29;20040;-74
2022/08/23 09:42:43;;;;;;;0.10;0.10;;;8.40;99.90;;;;;;4896622;29;20029;-72
2022/08/23 09:45:45;;;;;;;0.17;0.17;;;8.30;99.90;;;;;;4897918;29;20036;-72
2022/08/23 09:48:14;;;;;;;1.40;0.20;;;8.30;99.90;;;;;;4895719;29;20044;-74
2022/08/23 09:50:56;;;;;;;0.40;0.20;;;8.30;99.90;;;;;;4912810;29;20428;-73
2022/08/23 09:53:28;;;;;;;0.20;0.10;;;8.30;99.90;;;;;;4915606;29;20364;-72
2022/08/23 09:56:10;;;;;;;0.38;0.10;;;8.30;99.90;;;;;;4913723;29;20170;-74
2022/08/23 09:58:41;;;;;;;0.00;0.00;;;8.30;99.90;;;;;;4915666;29;20031;-73
2022/08/23 10:01:30;;;;;;;0.30;0.20;;;8.20;99.90;;;;;;4914156;29;20028;-73
2022/08/23 10:04:16;;;;;;;0.10;0.10;;;8.20;99.90;;;;;;4915878;29;20138;-73
2022/08/23 10:06:45;;;;;;;0.13;0.10;;;8.20;99.90;;;;;;4912920;29;20048;-73
2022/08/23 10:09:33;;;;;;;0.15;0.15;;;8.20;99.90;;;;;;4915538;29;20127;-72
2022/08/23 10:12:01;;;;;;;0.20;0.15;;;8.20;99.90;;;;;;4913418;29;20043;-76
2022/08/23 10:14:32;;;;;;;0.57;0.20;;;8.20;99.90;;;;;;4915841;29;20016;-72
2022/08/23 10:17:07;;;;;;;0.32;0.20;;;8.20;99.90;;;;;;4907474;29;20475;-74
2022/08/23 10:20:00;;;;;;;0.10;0.10;;;8.20;99.90;;;;;;4915522;29;20025;-73
2022/08/23 10:22:32;;;;;;;0.10;0.00;;;8.20;99.90;;;;;;4915380;29;20139;-73
2022/08/23 10:25:16;;;;;;;0.10;0.10;;;8.20;99.90;;;;;;4913635;29;20032;-73
2022/08/23 10:31:12;;;;;;;0.17;0.13;;;8.20;99.90;;;;;;4913739;29;20111;-73
2022/08/23 10:33:56;;;;;;;0.00;0.00;;;8.20;99.90;;;;;;4915192;29;20131;-73
2022/08/23 10:36:30;;;;;;;0.15;0.10;;;8.20;99.90;;;;;;4913328;29;20049;-73
2022/08/23 10:39:02;;;;;;;0.10;0.10;;;8.20;99.90;;;;;;4915213;29;20519;-73
2022/08/23 10:42:00;;;;;;;0.63;0.63;;;8.20;99.90;;;;;;4913346;29;20036;-73
2022/08/23 10:45:15;;;;;;;0.85;0.30;;;8.20;99.90;;;;;;4914922;29;20032;-73
2022/08/23 10:48:02;;;;;;;5.10;0.30;;;8.20;99.90;;;;;;4891318;29;20048;-73
2022/08/23 10:50:40;;;;;;;0.40;0.40;;;8.20;99.90;;;;;;4913038;29;20104;-73
2022/08/23 10:53:32;;;;;;;0.60;0.40;;;8.10;99.90;;;;;;4914971;29;20028;-71
2022/08/23 10:56:03;;;;;;;0.47;0.40;;;8.10;99.90;;;;;;4913827;29;20498;-72
2022/08/23 10:58:58;;;;;;;0.68;0.50;;;8.10;99.90;;;;;;4915116;29;20035;-72
2022/08/23 11:01:47;;;;;;;0.20;0.20;;;8.10;99.90;;;;;;4913289;29;20028;-73
2022/08/23 11:04:32;;;;;;;0.20;0.20;;;8.10;99.90;;;;;;4914812;29;20395;-73
2022/08/23 11:07:14;;;;;;;4.30;1.55;;;8.10;99.90;;;;;;4913168;29;20423;-73
2022/08/23 11:10:10;;;;;;;2.13;0.50;;;8.10;99.90;;;;;;4914637;29;20051;-73
2022/08/23 11:12:54;;;;;;;0.35;0.13;;;8.10;99.90;;;;;;4907838;29;20439;-73
2022/08/23 11:15:50;;;;;;;0.98;0.35;;;8.10;99.90;;;;;;4913071;29;20416;-73
2022/08/23 11:18:38;;;;;;;0.22;0.17;;;8.10;99.90;;;;;;4892598;29;20040;-72
2022/08/23 11:21:32;;;;;;;0.45;0.30;;;8.10;99.90;;;;;;4907842;29;20366;-73
2022/08/23 11:24:00;;;;;;;1.30;0.20;;;8.10;99.90;;;;;;4903710;29;20032;-74
2022/08/23 11:26:35;;;;;;;0.30;0.20;;;8.10;99.90;;;;;;4916060;29;20040;-72
2022/08/23 11:29:11;;;;;;;0.95;0.70;;;8.10;99.90;;;;;;4918974;29;20036;-74
2022/08/23 11:31:42;;;;;;;0.63;0.30;;;8.20;99.90;;;;;;4915930;29;20385;-72
2022/08/23 11:34:19;;;;;;;2.47;0.30;;;8.20;99.90;;;;;;4918052;29;20107;-74
2022/08/23 11:37:22;;;;;;;1.30;0.28;;;8.20;99.90;;;;;;4916328;29;20584;-73
2022/08/23 11:39:59;;;;;;;0.50;0.10;;;8.20;99.90;;;;;;4916844;29;20024;-74
2022/08/23 11:42:38;;;;;;;0.98;0.20;;;8.20;99.90;;;;;;4904167;29;20109;-74
2022/08/23 11:45:27;;;;;;;3.17;0.88;;;8.20;99.90;;;;;;4915964;29;20033;-74
2022/08/23 11:48:15;;;;;;;0.60;0.22;;;8.20;99.90;;;;;;4911894;29;20047;-74
2022/08/23 11:50:57;;;;;;;0.73;0.20;;;8.30;99.90;;;;;;4915971;29;20616;-74
2022/08/23 11:53:49;;;;;;;2.03;0.32;;;8.20;99.90;;;;;;4917676;29;20032;-74
2022/08/23 11:56:59;;;;;;;2.22;1.60;;;8.30;99.90;;;;;;4915349;29;20063;-75
2022/08/23 11:59:33;;;;;;;0.90;0.38;;;8.40;99.90;;;;;;4917516;29;20047;-73
2022/08/23 12:02:33;;;;;;;0.40;0.20;;;8.40;99.90;;;;;;4899262;29;20037;-74
2022/08/23 12:05:07;;;;;;;1.02;0.30;;;8.50;99.90;;;;;;4874872;29;20036;-74
2022/08/23 12:08:15;;;;;;;0.30;0.10;;;8.50;99.90;;;;;;4917474;29;20036;-73
2022/08/23 12:10:44;;;;;;;2.92;0.40;;;8.60;99.90;;;;;;4915055;29;20103;-73
2022/08/23 12:13:20;;;;;;;0.35;0.20;;;8.60;99.90;;;;;;4917376;29;20067;-73
2022/08/23 12:16:25;;;;;;;0.98;0.20;;;8.70;99.90;;;;;;4911786;29;20028;-74
2022/08/23 12:18:56;;;;;;;0.77;0.20;;;8.80;99.90;;;;;;4917063;29;20024;-75
2022/08/23 12:21:44;;;;;;;3.20;0.57;;;8.80;99.90;;;;;;4916303;29;20051;-74
2022/08/23 12:24:30;;;;;;;3.40;0.30;;;8.90;99.90;;;;;;4916903;29;20025;-74
2022/08/23 12:27:00;;;;;;;1.08;0.15;;;9.00;99.90;;;;;;4900110;29;20131;-74
2022/08/23 12:29:46;;;;;;;2.17;0.43;;;9.00;99.90;;;;;;4897176;29;20080;-75
2022/08/23 12:32:34;;;;;;;2.53;0.20;;;9.00;99.90;;;;;;4911001;29;21758;-75
2022/08/23 12:35:17;;;;;;;0.90;0.30;;;9.10;99.90;;;;;;4907727;29;20028;-73
2022/08/23 12:37:53;;;;;;;0.30;0.20;;;9.10;99.90;;;;;;4916988;29;20059;-74
2022/08/23 12:40:30;;;;;;;0.20;0.10;;;9.10;99.90;;;;;;4914331;29;20047;-75
2022/08/23 12:43:16;;;;;;;0.30;0.10;;;9.20;99.90;;;;;;4897906;29;20044;-74
2022/08/23 12:45:48;;;;;;;0.15;0.15;;;9.30;99.90;;;;;;4902842;29;20032;-74
2022/08/23 12:48:21;;;;;;;0.30;0.20;;;9.30;99.90;;;;;;4915851;29;20471;-74
2022/08/23 12:51:06;;;;;;;1.27;0.15;;;9.30;99.90;;;;;;4914627;29;20176;-74
2022/08/23 12:53:37;;;;;;;2.30;0.20;;;9.30;99.90;;;;;;4917042;29;20031;-75
2022/08/23 12:56:21;;;;;;;2.78;0.50;;;9.40;99.90;;;;;;4914194;29;20050;-74
2022/08/23 12:59:03;;;;;;;1.40;0.20;;;9.30;99.90;;;;;;4916397;29;20036;-74
2022/08/23 13:01:37;;;;;;;0.68;0.35;;;9.30;99.90;;;;;;4914128;29;20457;-74
2022/08/23 13:04:12;;;;;;;0.00;0.00;;;9.40;99.90;;;;;;4916184;29;20032;-75
2022/08/23 13:06:48;;;;;;;1.40;0.20;;;9.40;99.90;;;;;;4914257;29;20032;-75
2022/08/23 13:09:24;;;;;;;;;;;9.40;99.90;;;;;;4916729;29;20083;-72
2022/08/23 13:11:52;;;;;;;0.20;0.10;;;9.30;99.90;;;;;;4914453;29;20327;-74
2022/08/23 13:14:34;;;;;;;3.33;0.10;;;9.40;99.90;;;;;;4916331;29;20120;-75
2022/08/23 13:17:25;;;;;;;0.13;0.10;;;9.40;99.90;;;;;;4910286;29;20032;-74
2022/08/23 13:20:14;;;;;;;2.10;0.80;;;9.40;99.90;;;;;;4914382;29;20028;-74
2022/08/23 13:23:01;;;;;;;1.10;0.30;;;9.40;99.90;;;;;;4896763;29;20064;-74
2022/08/23 13:25:34;;;;;;;1.33;0.35;;;9.50;99.90;;;;;;4904129;29;20119;-74
2022/08/23 13:28:27;;;;;;;1.00;0.45;;;9.40;99.90;;;;;;4916298;29;20033;-74
2022/08/23 13:31:06;;;;;;;0.25;0.20;;;9.50;99.90;;;;;;4901559;29;20447;-74
2022/08/23 13:33:34;;;;;;;1.35;0.38;;;9.50;99.90;;;;;;4915901;29;20036;-75
2022/08/23 13:36:24;;;;;;;1.35;0.50;;;9.40;99.90;;;;;;4909384;29;20028;-75
2022/08/23 13:38:52;;;;;;;0.95;0.38;;;9.40;99.90;;;;;;4904316;29;20431;-74